createdAt,value
2017-12-19T00:01:10.559Z,4.00
2017-12-19T00:03:52.722Z,4.00
2017-12-19T00:06:28.492Z,4.10
2017-12-19T00:09:03.727Z,4.10
2017-12-19T00:11:39.419Z,4.10
2017-12-19T00:14:18.316Z,4.10
2017-12-19T00:16:55.448Z,4.10
2017-12-19T00:19:33.409Z,4.10
2017-12-19T00:22:11.179Z,4.00
2017-12-19T00:24:57.470Z,4.00
2017-12-19T00:27:31.059Z,4.00
2017-12-19T00:32:50.881Z,3.90
2017-12-19T00:35:27.529Z,3.80
2017-12-19T00:38:01.939Z,3.80
2017-12-19T00:40:38.114Z,3.80
2017-12-19T00:43:21.296Z,3.80
2017-12-19T00:45:56.932Z,3.80
2017-12-19T00:48:30.063Z,3.80
2017-12-19T00:51:03.069Z,3.80
2017-12-19T00:53:38.714Z,4.00
2017-12-19T00:56:20.130Z,4.00
2017-12-19T00:58:57.352Z,4.10
2017-12-19T01:01:30.074Z,4.00
2017-12-19T01:04:06.106Z,4.10
2017-12-19T01:06:43.495Z,4.10
2017-12-19T01:09:19.259Z,4.10
2017-12-19T01:11:50.996Z,4.00
2017-12-19T01:14:23.479Z,4.10
2017-12-19T01:16:55.252Z,4.10
2017-12-19T01:19:29.345Z,4.10
2017-12-19T01:22:06.015Z,3.90
2017-12-19T01:24:38.300Z,3.80
2017-12-19T01:27:14.159Z,3.80
2017-12-19T01:29:49.118Z,3.80
2017-12-19T01:32:25.426Z,3.90
2017-12-19T01:35:02.172Z,3.90
2017-12-19T01:37:39.533Z,3.70
2017-12-19T01:40:23.969Z,3.70
2017-12-19T01:43:00.227Z,3.90
2017-12-19T01:45:35.585Z,3.80
2017-12-19T01:48:12.028Z,3.90
2017-12-19T01:50:44.584Z,3.90
2017-12-19T01:53:18.055Z,4.00
2017-12-19T01:55:54.147Z,4.00
2017-12-19T01:58:31.113Z,4.00
2017-12-19T02:01:03.775Z,4.10
2017-12-19T02:03:37.923Z,4.10
2017-12-19T02:06:10.308Z,4.10
2017-12-19T02:08:45.344Z,4.10
2017-12-19T02:11:16.832Z,4.00
2017-12-19T02:13:53.301Z,4.00
2017-12-19T02:16:28.505Z,4.10
2017-12-19T02:19:03.157Z,4.10
2017-12-19T02:21:39.184Z,4.00
2017-12-19T02:24:16.173Z,4.10
2017-12-19T02:26:50.206Z,4.00
2017-12-19T02:29:24.838Z,3.80
2017-12-19T02:31:59.051Z,3.80
2017-12-19T02:34:36.923Z,3.80
2017-12-19T02:37:10.072Z,3.90
2017-12-19T02:39:43.771Z,4.00
2017-12-19T02:42:17.597Z,4.00
2017-12-19T02:44:57.008Z,4.00
2017-12-19T02:47:36.294Z,3.90
2017-12-19T02:50:09.519Z,3.90
2017-12-19T02:52:42.781Z,3.80
2017-12-19T02:55:16.327Z,3.70
2017-12-19T02:57:52.002Z,3.90
2017-12-19T03:00:26.177Z,3.90
2017-12-19T03:03:00.428Z,3.80
2017-12-19T03:05:33.963Z,3.90
2017-12-19T03:08:07.449Z,3.90
2017-12-19T03:10:41.879Z,3.80
2017-12-19T03:13:22.066Z,3.90
2017-12-19T03:15:55.864Z,3.90
2017-12-19T03:18:29.927Z,4.40
2017-12-19T03:21:06.317Z,3.80
2017-12-19T03:23:42.072Z,3.80
2017-12-19T03:26:25.442Z,3.80
2017-12-19T03:28:58.940Z,3.80
2017-12-19T03:31:31.031Z,3.80
2017-12-19T03:34:05.319Z,3.80
2017-12-19T03:36:42.510Z,3.90
2017-12-19T03:39:16.347Z,3.90
2017-12-19T03:41:54.533Z,3.50
2017-12-19T03:44:28.135Z,3.90
2017-12-19T03:47:08.345Z,3.90
2017-12-19T03:49:42.042Z,3.90
2017-12-19T03:52:19.382Z,3.90
2017-12-19T03:54:51.746Z,3.90
2017-12-19T03:57:28.950Z,4.20
2017-12-19T04:00:06.290Z,4.20
2017-12-19T04:02:39.691Z,4.30
2017-12-19T04:05:14.507Z,4.20
2017-12-19T04:07:47.852Z,4.20
2017-12-19T04:10:26.967Z,4.20
2017-12-19T04:12:59.550Z,4.20
2017-12-19T04:15:33.777Z,4.30
2017-12-19T04:18:06.844Z,3.80
2017-12-19T04:20:40.781Z,4.40
2017-12-19T04:23:16.732Z,4.30
2017-12-19T04:25:49.049Z,4.40
2017-12-19T04:28:22.562Z,4.40
2017-12-19T04:30:54.758Z,4.50
2017-12-19T04:33:31.634Z,4.50
2017-12-19T04:36:08.176Z,4.50
2017-12-19T04:38:39.794Z,4.40
2017-12-19T04:41:11.954Z,4.30
2017-12-19T04:43:46.497Z,4.20
2017-12-19T04:46:21.306Z,4.20
2017-12-19T04:48:58.732Z,4.20
2017-12-19T04:51:33.481Z,3.00
2017-12-19T04:54:10.128Z,4.50
2017-12-19T04:56:46.209Z,4.60
2017-12-19T04:59:22.476Z,4.70
2017-12-19T05:01:58.056Z,4.70
2017-12-19T05:04:34.216Z,4.80
2017-12-19T05:07:10.142Z,4.70
2017-12-19T05:09:46.645Z,4.80
2017-12-19T05:12:27.724Z,4.50
2017-12-19T05:15:05.161Z,4.90
2017-12-19T05:17:37.221Z,4.80
2017-12-19T05:21:36.072Z,4.90
2017-12-19T05:24:09.914Z,4.80
2017-12-19T05:26:44.167Z,4.70
2017-12-19T05:29:18.588Z,4.70
2017-12-19T05:31:55.001Z,4.80
2017-12-19T05:34:34.087Z,4.80
2017-12-19T05:37:09.535Z,4.70
2017-12-19T05:39:48.653Z,4.70
2017-12-19T05:42:26.624Z,5.30
2017-12-19T05:45:03.992Z,4.70
2017-12-19T05:47:37.868Z,4.70
2017-12-19T05:50:13.829Z,4.80
2017-12-19T05:52:50.818Z,4.80
2017-12-19T05:55:27.777Z,5.10
2017-12-19T05:58:07.337Z,5.20
2017-12-19T06:00:40.220Z,5.20
2017-12-19T06:03:14.535Z,5.30
2017-12-19T06:05:51.004Z,5.40
2017-12-19T06:08:27.610Z,5.40
2017-12-19T06:11:07.676Z,5.30
2017-12-19T06:13:41.323Z,5.30
2017-12-19T06:16:24.581Z,5.40
2017-12-19T06:19:07.377Z,5.50
2017-12-19T06:21:47.506Z,5.60
2017-12-19T06:24:27.449Z,5.50
2017-12-19T06:27:06.073Z,5.50
2017-12-19T06:29:48.961Z,5.40
2017-12-19T06:32:28.655Z,5.60
2017-12-19T06:35:09.587Z,5.60
2017-12-19T06:37:42.888Z,5.60
2017-12-19T06:40:17.581Z,5.60
2017-12-19T06:42:54.224Z,5.60
2017-12-19T06:45:29.466Z,5.70
2017-12-19T06:48:06.407Z,5.70
2017-12-19T06:50:43.189Z,5.70
2017-12-19T06:53:20.232Z,5.70
2017-12-19T06:56:00.644Z,5.70
2017-12-19T06:58:35.226Z,5.70
2017-12-19T07:01:10.215Z,5.70
2017-12-19T07:03:44.959Z,5.70
2017-12-19T07:06:19.962Z,5.80
2017-12-19T07:08:56.220Z,5.80
2017-12-19T07:11:30.579Z,5.90
2017-12-19T07:14:06.024Z,5.80
2017-12-19T07:16:38.798Z,5.90
2017-12-19T07:19:15.930Z,5.90
2017-12-19T07:21:59.044Z,6.00
2017-12-19T07:24:37.769Z,5.90
2017-12-19T07:27:17.530Z,5.90
2017-12-19T07:29:55.804Z,5.90
2017-12-19T07:32:34.514Z,6.00
2017-12-19T07:35:22.490Z,5.90
2017-12-19T07:41:58.866Z,5.90
2017-12-19T07:44:34.931Z,5.90
2017-12-19T07:47:21.398Z,5.90
2017-12-19T07:53:38.977Z,6.00
2017-12-19T07:56:20.515Z,6.00
2017-12-19T07:59:14.796Z,6.00
2017-12-19T08:02:04.350Z,6.00
2017-12-19T08:04:41.747Z,6.00
2017-12-19T08:07:29.761Z,6.10
2017-12-19T08:10:06.763Z,6.10
2017-12-19T08:12:43.885Z,6.10
2017-12-19T08:15:21.281Z,6.10
2017-12-19T08:18:00.190Z,6.00
2017-12-19T08:20:35.857Z,6.10
2017-12-19T08:25:55.610Z,6.10
2017-12-19T08:28:34.076Z,6.20
2017-12-19T08:31:14.552Z,6.20
2017-12-19T08:33:49.859Z,6.20
2017-12-19T08:36:25.568Z,6.20
2017-12-19T08:39:05.480Z,6.20
2017-12-19T08:41:42.245Z,6.30
2017-12-19T08:44:26.475Z,6.30
2017-12-19T08:47:05.873Z,6.30
2017-12-19T08:49:46.712Z,6.30
2017-12-19T08:52:29.039Z,6.30
2017-12-19T08:55:12.595Z,6.40
2017-12-19T08:57:53.280Z,6.40
2017-12-19T09:00:38.227Z,6.40
2017-12-19T09:03:14.011Z,6.50
2017-12-19T09:05:53.393Z,6.50
2017-12-19T09:08:33.259Z,6.50
2017-12-19T09:11:17.478Z,6.50
2017-12-19T09:14:00.293Z,6.50
2017-12-19T09:16:37.182Z,6.60
2017-12-19T09:19:18.820Z,6.60
2017-12-19T09:24:37.143Z,6.70
2017-12-19T09:27:25.058Z,6.80
2017-12-19T09:30:09.686Z,6.80
2017-12-19T09:36:04.089Z,6.80
2017-12-19T09:38:44.623Z,6.90
2017-12-19T09:41:31.286Z,7.00
2017-12-19T09:44:10.459Z,7.00
2017-12-19T09:46:48.679Z,6.90
2017-12-19T09:49:36.418Z,6.20
2017-12-19T09:52:14.717Z,6.80
2017-12-19T09:55:03.811Z,6.90
2017-12-19T09:57:40.450Z,7.00
2017-12-19T10:00:15.914Z,7.10
2017-12-19T10:02:53.613Z,7.00
2017-12-19T10:05:31.322Z,6.90
2017-12-19T10:08:12.769Z,6.80
2017-12-19T10:10:51.120Z,6.80
2017-12-19T10:13:28.933Z,6.80
2017-12-19T10:16:08.520Z,6.90
2017-12-19T10:18:47.008Z,6.90
2017-12-19T10:21:28.632Z,6.90
2017-12-19T10:24:03.787Z,6.90
2017-12-19T10:26:40.692Z,6.90
2017-12-19T10:29:20.749Z,6.80
2017-12-19T10:31:56.232Z,6.90
2017-12-19T10:34:34.375Z,7.00
2017-12-19T10:37:11.894Z,7.00
2017-12-19T10:39:51.417Z,7.20
2017-12-19T10:42:32.260Z,7.20
2017-12-19T10:45:10.596Z,7.20
2017-12-19T10:47:46.444Z,7.30
2017-12-19T10:50:22.204Z,7.30
2017-12-19T10:53:07.077Z,7.30
2017-12-19T10:55:41.200Z,7.30
2017-12-19T10:58:16.749Z,7.40
2017-12-19T11:00:54.317Z,7.40
2017-12-19T11:03:36.270Z,7.30
2017-12-19T11:06:11.914Z,7.30
2017-12-19T11:08:49.308Z,7.30
2017-12-19T11:11:26.102Z,7.40
2017-12-19T11:14:02.562Z,7.50
2017-12-19T11:16:35.708Z,7.50
2017-12-19T11:19:08.816Z,7.50
2017-12-19T11:21:45.185Z,7.40
2017-12-19T11:24:24.955Z,7.50
2017-12-19T11:27:00.890Z,7.60
2017-12-19T11:29:51.460Z,7.70
2017-12-19T11:32:34.566Z,6.80
2017-12-19T11:35:15.336Z,7.70
2017-12-19T11:37:54.598Z,7.70
2017-12-19T11:40:34.219Z,7.70
2017-12-19T11:43:10.833Z,7.70
2017-12-19T11:45:51.674Z,8.90
2017-12-19T11:48:31.723Z,7.70
2017-12-19T11:54:09.674Z,7.70
2017-12-19T11:56:54.121Z,7.60
2017-12-19T11:59:35.718Z,7.70
2017-12-19T12:02:16.175Z,7.60
2017-12-19T12:04:59.065Z,7.60
2017-12-19T12:07:32.301Z,7.60
2017-12-19T12:10:12.319Z,7.60
2017-12-19T12:12:56.988Z,7.60
2017-12-19T12:15:38.875Z,7.60
2017-12-19T12:18:17.870Z,7.70
2017-12-19T12:20:56.490Z,6.40
2017-12-19T12:23:41.649Z,7.60
2017-12-19T12:26:21.777Z,7.50
2017-12-19T12:28:59.748Z,7.40
2017-12-19T12:31:35.678Z,7.50
2017-12-19T12:34:14.547Z,7.50
2017-12-19T12:36:55.925Z,7.60
2017-12-19T12:39:33.901Z,7.60
2017-12-19T12:42:08.247Z,7.70
2017-12-19T12:44:45.041Z,7.80
2017-12-19T12:47:23.660Z,8.30
2017-12-19T12:50:04.414Z,7.70
2017-12-19T12:52:39.362Z,7.70
2017-12-19T12:55:18.962Z,7.70
2017-12-19T12:57:59.798Z,7.70
2017-12-19T13:03:48.707Z,7.70
2017-12-19T13:06:31.504Z,7.80
2017-12-19T13:09:11.792Z,7.70
2017-12-19T13:11:47.670Z,7.60
2017-12-19T13:14:32.628Z,7.80
2017-12-19T13:17:15.344Z,8.60
2017-12-19T13:19:56.205Z,8.00
2017-12-19T13:22:39.307Z,8.00
2017-12-19T13:25:22.947Z,8.20
2017-12-19T13:28:10.162Z,8.10
2017-12-19T13:31:01.212Z,8.30
2017-12-19T13:33:48.260Z,8.20
2017-12-19T13:36:35.922Z,8.30
2017-12-19T13:39:30.933Z,8.30
2017-12-19T13:42:16.977Z,8.30
2017-12-19T13:44:57.225Z,8.30
2017-12-19T13:47:35.106Z,8.20
2017-12-19T13:50:30.737Z,8.20
2017-12-19T13:53:11.974Z,9.00
2017-12-19T13:55:57.245Z,8.20
2017-12-19T13:58:46.681Z,8.80
2017-12-19T14:01:28.832Z,8.70
2017-12-19T14:04:15.356Z,8.20
2017-12-19T14:09:49.570Z,9.30
2017-12-19T14:12:37.731Z,8.20
2017-12-19T14:15:37.132Z,8.20
2017-12-19T14:18:27.666Z,8.10
2017-12-19T14:21:13.193Z,8.10
2017-12-19T14:23:59.285Z,7.50
2017-12-19T14:26:45.268Z,8.90
2017-12-19T14:29:24.145Z,8.10
2017-12-19T14:32:03.329Z,8.10
2017-12-19T14:34:43.005Z,8.00
2017-12-19T14:37:46.363Z,8.00
2017-12-19T14:40:36.316Z,7.90
2017-12-19T14:43:23.867Z,7.90
2017-12-19T14:46:06.357Z,7.90
2017-12-19T14:48:48.817Z,7.80
2017-12-19T14:51:32.010Z,7.50
2017-12-19T14:54:22.592Z,7.90
2017-12-19T15:00:01.916Z,7.80
2017-12-19T15:02:38.656Z,7.80
2017-12-19T15:05:31.788Z,7.60
2017-12-19T15:08:25.893Z,7.60
2017-12-19T15:11:23.940Z,7.70
2017-12-19T15:14:12.550Z,7.60
2017-12-19T15:17:01.158Z,6.20
2017-12-19T15:19:45.065Z,7.60
2017-12-19T15:22:31.064Z,8.30
2017-12-19T15:25:14.376Z,7.60
2017-12-19T15:27:59.496Z,7.70
2017-12-19T15:30:46.711Z,7.60
2017-12-19T15:33:25.541Z,7.60
2017-12-19T15:36:03.518Z,7.60
2017-12-19T15:38:44.673Z,7.70
2017-12-19T15:41:27.243Z,7.70
2017-12-19T15:44:11.380Z,7.80
2017-12-19T15:46:55.476Z,7.80
2017-12-19T15:49:47.126Z,8.70
2017-12-19T15:52:31.893Z,7.80
2017-12-19T15:55:22.371Z,7.80
2017-12-19T15:58:15.358Z,7.80
2017-12-19T16:01:16.212Z,7.80
2017-12-19T16:06:43.490Z,7.80
2017-12-19T16:09:30.272Z,7.80
2017-12-19T16:15:31.413Z,7.80
2017-12-19T16:18:16.013Z,7.80
2017-12-19T16:21:02.236Z,7.80
2017-12-19T16:23:56.064Z,7.90
2017-12-19T16:26:38.379Z,7.80
2017-12-19T16:29:36.913Z,7.90
2017-12-19T16:32:19.775Z,7.80
2017-12-19T16:37:58.739Z,7.80
2017-12-19T16:41:01.840Z,7.70
2017-12-19T16:43:47.102Z,7.70
2017-12-19T16:46:34.952Z,7.70
2017-12-19T16:52:36.659Z,7.70
2017-12-19T16:55:29.433Z,7.60
2017-12-19T17:01:28.603Z,7.80
2017-12-19T17:04:45.337Z,7.80
2017-12-19T17:08:01.762Z,7.80
2017-12-19T17:10:50.126Z,7.80
2017-12-19T17:13:50.832Z,7.80
2017-12-19T17:19:33.283Z,7.80
2017-12-19T17:22:31.562Z,7.80
2017-12-19T17:31:36.305Z,7.70
2017-12-19T17:40:37.714Z,7.70
2017-12-19T17:43:36.636Z,7.60
2017-12-19T17:46:24.091Z,7.60
2017-12-19T17:49:11.808Z,7.60
2017-12-19T17:52:00.586Z,7.70
2017-12-19T17:55:17.369Z,7.70
2017-12-19T18:04:16.300Z,7.60
2017-12-19T18:18:03.446Z,7.50
2017-12-19T18:23:47.690Z,7.40
2017-12-19T18:35:53.684Z,7.30
2017-12-19T18:38:59.446Z,7.00
2017-12-19T18:41:58.120Z,7.10
2017-12-19T18:45:06.153Z,7.10
2017-12-19T18:50:43.646Z,7.30
2017-12-19T18:53:22.854Z,6.00
2017-12-19T18:56:02.442Z,7.30
2017-12-19T18:58:43.773Z,7.30
2017-12-19T19:01:31.444Z,7.30
2017-12-19T19:04:10.670Z,7.30
2017-12-19T19:06:47.105Z,7.30
2017-12-19T19:09:30.907Z,7.20
2017-12-19T19:12:12.352Z,7.20
2017-12-19T19:15:20.357Z,7.20
2017-12-19T19:17:59.661Z,7.20
2017-12-19T19:20:40.163Z,7.30
2017-12-19T19:23:20.780Z,7.30
2017-12-19T19:25:55.819Z,7.30
2017-12-19T19:28:32.446Z,7.30
2017-12-19T19:31:17.070Z,7.30
2017-12-19T19:33:59.493Z,7.30
2017-12-19T19:36:39.087Z,7.20
2017-12-19T19:39:15.937Z,7.10
2017-12-19T19:41:49.794Z,7.10
2017-12-19T19:44:27.095Z,7.10
2017-12-19T19:47:11.203Z,7.10
2017-12-19T19:49:45.272Z,7.10
2017-12-19T19:52:18.202Z,7.00
2017-12-19T19:54:53.130Z,7.10
2017-12-19T19:57:27.360Z,7.10
2017-12-19T20:00:01.652Z,7.10
2017-12-19T20:02:39.424Z,7.10
2017-12-19T20:05:14.736Z,7.10
2017-12-19T20:07:55.458Z,7.30
2017-12-19T20:10:30.124Z,6.90
2017-12-19T20:13:12.883Z,6.90
2017-12-19T20:15:51.679Z,6.90
2017-12-19T20:18:28.706Z,7.00
2017-12-19T20:21:03.963Z,7.10
2017-12-19T20:23:43.133Z,7.20
2017-12-19T20:26:20.288Z,7.20
2017-12-19T20:29:01.263Z,7.20
2017-12-19T20:31:43.792Z,7.20
2017-12-19T20:34:19.438Z,7.10
2017-12-19T20:36:56.690Z,7.20
2017-12-19T20:39:34.237Z,7.20
2017-12-19T20:45:50.303Z,7.10
2017-12-19T20:48:28.323Z,7.20
2017-12-19T20:51:02.659Z,7.20
2017-12-19T20:53:42.699Z,7.20
2017-12-19T20:56:18.957Z,7.30
2017-12-19T20:59:08.761Z,7.30
2017-12-19T21:01:44.675Z,7.30
2017-12-19T21:04:20.376Z,7.30
2017-12-19T21:06:56.242Z,7.30
2017-12-19T21:09:32.489Z,7.30
2017-12-19T21:12:07.378Z,7.20
2017-12-19T21:14:57.502Z,7.20
2017-12-19T21:17:48.458Z,7.20
2017-12-19T21:20:27.664Z,7.30
2017-12-19T21:23:02.925Z,7.30
2017-12-19T21:25:44.430Z,7.30
2017-12-19T21:28:18.007Z,7.30
2017-12-19T21:30:53.648Z,7.40
2017-12-19T21:33:32.359Z,7.40
2017-12-19T21:36:07.967Z,7.40
2017-12-19T21:38:49.038Z,7.40
2017-12-19T21:41:23.599Z,7.40
2017-12-19T21:43:58.622Z,7.40
2017-12-19T21:46:36.661Z,7.40
2017-12-19T21:49:11.836Z,7.30
2017-12-19T21:51:47.862Z,7.30
2017-12-19T21:54:22.697Z,7.30
2017-12-19T21:56:54.945Z,7.30
2017-12-19T21:59:27.451Z,7.40
2017-12-19T22:02:01.942Z,7.40
2017-12-19T22:04:36.518Z,7.70
2017-12-19T22:07:09.101Z,7.40
2017-12-19T22:09:45.936Z,7.50
2017-12-19T22:12:20.252Z,7.40
2017-12-19T22:14:52.591Z,7.40
2017-12-19T22:17:27.365Z,7.40
2017-12-19T22:20:07.132Z,7.40
2017-12-19T22:22:43.409Z,5.90
2017-12-19T22:25:17.834Z,5.90
2017-12-19T22:27:58.217Z,6.40
2017-12-19T22:30:31.538Z,7.40
2017-12-19T22:33:07.455Z,7.30
2017-12-19T22:35:45.800Z,7.30
2017-12-19T22:38:20.244Z,7.30
2017-12-19T22:40:59.695Z,7.30
2017-12-19T22:43:33.587Z,7.30
2017-12-19T22:46:06.302Z,7.30
2017-12-19T22:51:17.470Z,7.30
2017-12-19T22:53:52.454Z,7.30
2017-12-19T22:56:29.914Z,7.30
2017-12-19T22:59:04.219Z,7.30
2017-12-19T23:01:48.270Z,7.20
2017-12-19T23:04:21.312Z,7.20
2017-12-19T23:06:56.398Z,7.10
2017-12-19T23:09:34.506Z,7.20
2017-12-19T23:12:06.675Z,7.30
2017-12-19T23:14:43.853Z,6.10
2017-12-19T23:17:20.662Z,7.30
2017-12-19T23:19:58.515Z,7.30
2017-12-19T23:22:34.962Z,7.30
2017-12-19T23:25:15.826Z,7.40
2017-12-19T23:27:51.444Z,7.40
2017-12-19T23:30:27.350Z,7.40
2017-12-19T23:33:05.259Z,7.40
2017-12-19T23:35:42.554Z,7.40
2017-12-19T23:38:18.150Z,7.40
2017-12-19T23:41:01.338Z,7.40
2017-12-19T23:43:40.536Z,7.30
2017-12-19T23:46:16.948Z,7.30
2017-12-19T23:49:05.231Z,7.40
2017-12-19T23:51:40.413Z,7.40
2017-12-19T23:54:19.375Z,7.40
2017-12-19T23:56:59.613Z,7.40
2017-12-19T23:59:40.294Z,7.40
